createdAt,value
2023-04-23T00:02:54.479Z,1.38
2023-04-23T00:08:18.767Z,0.88
2023-04-23T00:13:41.228Z,1.73
2023-04-23T00:19:03.133Z,1.45
2023-04-23T00:24:24.924Z,1.15
2023-04-23T00:29:46.907Z,0.80
2023-04-23T00:35:09.140Z,1.17
2023-04-23T00:40:31.024Z,1.00
2023-04-23T00:45:52.960Z,1.52
2023-04-23T00:51:17.772Z,1.05
2023-04-23T00:56:39.750Z,0.80
2023-04-23T01:02:01.822Z,0.93
2023-04-23T01:07:24.047Z,0.70
2023-04-23T01:12:46.734Z,0.88
2023-04-23T01:18:08.733Z,0.88
2023-04-23T01:23:31.325Z,1.10
2023-04-23T01:28:53.504Z,0.85
2023-04-23T01:34:15.760Z,1.80
2023-04-23T01:39:37.862Z,0.85
2023-04-23T01:44:59.838Z,1.35
2023-04-23T01:50:24.689Z,1.40
2023-04-23T01:55:48.324Z,1.13
2023-04-23T02:01:10.198Z,0.70
2023-04-23T02:06:32.780Z,0.73
2023-04-23T02:11:54.602Z,1.48
2023-04-23T02:17:16.526Z,0.70
2023-04-23T02:22:41.230Z,1.08
2023-04-23T02:28:06.540Z,1.17
2023-04-23T02:33:28.326Z,0.68
2023-04-23T02:38:51.429Z,1.77
2023-04-23T02:44:13.243Z,1.90
2023-04-23T02:49:35.121Z,0.77
2023-04-23T02:54:57.027Z,0.73
2023-04-23T03:00:19.192Z,1.05
2023-04-23T03:05:41.228Z,1.65
2023-04-23T03:11:03.162Z,1.17
2023-04-23T03:16:25.213Z,1.13
2023-04-23T03:21:47.062Z,0.85
2023-04-23T03:27:09.011Z,2.33
2023-04-23T03:32:30.872Z,1.00
2023-04-23T03:37:53.017Z,2.33
2023-04-23T03:43:14.820Z,1.60
2023-04-23T03:48:36.629Z,1.15
2023-04-23T03:53:58.419Z,1.42
2023-04-23T03:59:20.491Z,0.60
2023-04-23T04:04:43.673Z,1.25
2023-04-23T04:10:07.194Z,0.50
2023-04-23T04:15:29.098Z,0.60
2023-04-23T04:20:52.140Z,1.63
2023-04-23T04:26:15.632Z,0.60
2023-04-23T04:31:37.969Z,0.50
2023-04-23T04:36:59.885Z,1.30
2023-04-23T04:42:21.707Z,0.63
2023-04-23T04:47:43.519Z,0.70
2023-04-23T04:53:05.330Z,0.50
2023-04-23T04:58:27.304Z,0.60
2023-04-23T05:03:49.516Z,0.50
2023-04-23T05:09:12.062Z,1.10
2023-04-23T05:14:34.364Z,0.70
2023-04-23T05:19:56.281Z,0.95
2023-04-23T05:25:18.131Z,0.82
2023-04-23T05:30:40.138Z,1.17
2023-04-23T05:36:01.946Z,1.38
2023-04-23T05:41:23.772Z,0.70
2023-04-23T05:46:45.717Z,0.73
2023-04-23T05:52:07.678Z,2.10
2023-04-23T05:57:29.473Z,0.82
2023-04-23T06:02:51.490Z,0.50
2023-04-23T06:08:13.447Z,0.68
2023-04-23T06:13:42.899Z,3.72
2023-04-23T06:19:05.535Z,5.80
2023-04-23T06:24:27.415Z,3.72
2023-04-23T06:29:49.245Z,7.30
2023-04-23T06:35:11.048Z,1.83
2023-04-23T06:40:33.798Z,3.15
2023-04-23T06:45:55.573Z,5.47
2023-04-23T06:51:17.626Z,4.30
2023-04-23T06:56:39.598Z,9.77
2023-04-23T07:02:01.390Z,4.80
2023-04-23T07:07:23.334Z,8.40
2023-04-23T07:12:45.402Z,5.05
2023-04-23T07:18:07.465Z,5.38
2023-04-23T07:23:29.296Z,4.65
2023-04-23T07:28:52.812Z,10.30
2023-04-23T07:34:15.056Z,3.20
2023-04-23T07:39:36.985Z,5.30
2023-04-23T07:44:58.824Z,3.83
2023-04-23T07:50:20.949Z,4.85
2023-04-23T07:55:42.690Z,7.05
2023-04-23T08:01:04.546Z,3.92
2023-04-23T08:06:27.484Z,3.38
2023-04-23T08:11:49.491Z,4.65
2023-04-23T08:17:11.285Z,3.90
2023-04-23T08:22:33.102Z,4.78
2023-04-23T08:27:55.023Z,8.43
2023-04-23T08:33:17.145Z,9.00
2023-04-23T08:38:38.929Z,11.45
2023-04-23T08:44:15.449Z,14.77
2023-04-23T08:49:41.893Z,6.32
2023-04-23T08:55:07.714Z,8.15
2023-04-23T09:05:53.485Z,12.23
2023-04-23T09:11:16.768Z,4.07
2023-04-23T09:16:41.196Z,5.28
2023-04-23T09:22:03.050Z,4.28
2023-04-23T09:27:26.627Z,10.80
2023-04-23T09:32:49.837Z,4.90
2023-04-23T09:38:12.327Z,4.47
2023-04-23T09:43:34.114Z,10.40
2023-04-23T09:48:57.596Z,4.70
2023-04-23T09:54:22.917Z,4.20
2023-04-23T09:59:47.756Z,6.18
2023-04-23T10:05:24.331Z,3.92
2023-04-23T10:11:00.024Z,3.50
2023-04-23T10:16:35.812Z,4.75
2023-04-23T10:22:18.498Z,11.65
2023-04-23T10:27:53.893Z,8.57
2023-04-23T10:33:28.870Z,7.28
2023-04-23T10:38:57.906Z,7.32
2023-04-23T10:44:44.947Z,10.27
2023-04-23T10:50:28.508Z,4.82
2023-04-23T10:55:50.643Z,6.85
2023-04-23T11:01:13.084Z,6.18
2023-04-23T11:06:49.877Z,3.33
2023-04-23T11:12:32.257Z,7.60
2023-04-23T11:17:54.168Z,4.55
2023-04-23T11:23:30.009Z,4.30
2023-04-23T11:28:54.016Z,7.47
2023-04-23T11:34:17.397Z,8.30
2023-04-23T11:39:41.547Z,8.90
2023-04-23T11:45:03.984Z,8.15
2023-04-23T11:50:28.040Z,7.97
2023-04-23T11:55:49.830Z,9.00
2023-04-23T12:01:12.944Z,11.73
2023-04-23T12:06:34.746Z,9.85
2023-04-23T12:11:58.734Z,11.60
2023-04-23T12:17:20.664Z,13.18
2023-04-23T12:22:42.510Z,7.80
2023-04-23T12:28:07.652Z,10.40
2023-04-23T12:33:30.801Z,9.07
2023-04-23T12:38:52.675Z,6.05
2023-04-23T12:44:15.486Z,8.93
2023-04-23T12:49:40.371Z,8.10
2023-04-23T12:55:05.293Z,7.88
2023-04-23T13:00:27.496Z,6.80
2023-04-23T13:05:49.401Z,4.85
2023-04-23T13:11:11.502Z,7.07
2023-04-23T13:16:33.585Z,10.23
2023-04-23T13:21:55.342Z,8.10
2023-04-23T13:27:17.358Z,8.60
2023-04-23T13:32:39.161Z,3.83
2023-04-23T13:38:00.972Z,10.32
2023-04-23T13:43:22.824Z,6.40
2023-04-23T13:48:44.624Z,11.90
2023-04-23T13:54:06.980Z,9.90
2023-04-23T13:59:28.841Z,6.15
2023-04-23T14:04:50.908Z,11.32
2023-04-23T14:10:12.856Z,7.22
2023-04-23T14:15:35.751Z,7.00
2023-04-23T14:20:57.724Z,7.82
2023-04-23T14:32:03.496Z,7.60
2023-04-23T14:37:25.530Z,7.03
2023-04-23T14:42:48.145Z,7.68
2023-04-23T14:48:10.442Z,5.15
2023-04-23T14:53:32.267Z,11.10
2023-04-23T14:58:54.137Z,8.23
2023-04-23T15:04:16.975Z,9.48
2023-04-23T15:09:38.840Z,15.43
2023-04-23T15:15:07.354Z,6.60
2023-04-23T15:20:29.159Z,8.52
2023-04-23T15:25:51.590Z,9.98
2023-04-23T15:31:13.628Z,10.55
2023-04-23T15:36:38.409Z,9.60
2023-04-23T15:42:00.420Z,10.13
2023-04-23T15:47:23.641Z,8.07
2023-04-23T15:52:45.527Z,7.40
2023-04-23T15:58:07.915Z,10.90
2023-04-23T16:03:30.156Z,6.10
2023-04-23T16:08:52.008Z,5.28
2023-04-23T16:14:13.774Z,7.30
2023-04-23T16:19:35.679Z,5.82
2023-04-23T16:24:57.522Z,6.38
2023-04-23T16:30:19.362Z,4.28
2023-04-23T16:35:41.171Z,4.28
2023-04-23T16:41:03.099Z,5.95
2023-04-23T16:46:26.519Z,6.00
2023-04-23T16:51:48.324Z,7.97
2023-04-23T16:57:10.242Z,6.60
2023-04-23T17:02:32.856Z,4.18
2023-04-23T17:07:54.857Z,16.83
2023-04-23T17:13:16.684Z,5.57
2023-04-23T17:18:38.440Z,11.23
2023-04-23T17:24:00.453Z,11.90
2023-04-23T17:29:22.285Z,11.27
2023-04-23T17:34:44.594Z,10.63
2023-04-23T17:40:08.414Z,10.07
2023-04-23T17:45:30.346Z,4.15
2023-04-23T17:50:53.554Z,6.80
2023-04-23T17:56:16.128Z,3.92
2023-04-23T18:01:38.671Z,9.70
2023-04-23T18:07:00.531Z,8.95
2023-04-23T18:12:22.323Z,6.55
2023-04-23T18:17:45.028Z,12.32
2023-04-23T18:23:07.144Z,13.45
2023-04-23T18:28:33.138Z,14.93
2023-04-23T18:33:59.698Z,10.95
2023-04-23T18:39:21.503Z,10.60
2023-04-23T18:44:43.504Z,11.95
2023-04-23T18:50:37.428Z,17.77
2023-04-23T18:55:59.289Z,10.23
2023-04-23T19:01:21.498Z,22.30
2023-04-23T19:06:43.300Z,9.85
2023-04-23T19:12:05.637Z,14.52
2023-04-23T19:17:27.632Z,8.02
2023-04-23T19:22:49.446Z,8.10
2023-04-23T19:28:11.330Z,4.60
2023-04-23T19:33:33.098Z,13.25
2023-04-23T19:38:54.961Z,14.07
2023-04-23T19:44:16.783Z,10.15
2023-04-23T19:49:38.583Z,9.48
2023-04-23T19:55:00.500Z,7.13
2023-04-23T20:00:23.926Z,6.25
2023-04-23T20:05:46.568Z,13.10
2023-04-23T20:11:10.786Z,8.02
2023-04-23T20:16:32.873Z,6.80
2023-04-23T20:21:54.825Z,3.38
2023-04-23T20:27:16.940Z,3.45
2023-04-23T20:32:38.747Z,14.65
2023-04-23T20:38:01.097Z,19.95
2023-04-23T20:43:23.200Z,10.88
2023-04-23T20:48:44.973Z,9.55
2023-04-23T20:54:06.925Z,11.57
2023-04-23T20:59:29.005Z,16.70
2023-04-23T21:04:50.892Z,6.97
2023-04-23T21:10:12.789Z,5.45
2023-04-23T21:15:35.954Z,8.98
2023-04-23T21:20:57.878Z,5.72
2023-04-23T21:26:19.701Z,9.45
2023-04-23T21:31:48.610Z,4.72
2023-04-23T21:37:10.959Z,3.63
2023-04-23T21:42:32.763Z,5.20
2023-04-23T21:47:57.151Z,3.17
2023-04-23T21:53:18.907Z,2.53
2023-04-23T21:58:40.813Z,3.25
2023-04-23T22:04:03.549Z,2.30
2023-04-23T22:09:25.725Z,1.67
2023-04-23T22:14:48.095Z,1.63
2023-04-23T22:20:12.599Z,2.28
2023-04-23T22:25:34.393Z,0.70
2023-04-23T22:30:56.353Z,2.45
2023-04-23T22:36:18.676Z,2.22
2023-04-23T22:41:40.594Z,2.17
2023-04-23T22:47:02.388Z,1.63
2023-04-23T22:52:24.211Z,3.35
2023-04-23T22:57:46.414Z,3.38
2023-04-23T23:03:08.704Z,2.85
2023-04-23T23:08:30.932Z,1.38
2023-04-23T23:13:53.136Z,2.00
2023-04-23T23:19:14.959Z,1.40
2023-04-23T23:24:36.878Z,5.00
2023-04-23T23:29:58.743Z,4.03
2023-04-23T23:35:20.671Z,3.15
2023-04-23T23:40:42.880Z,2.88
2023-04-23T23:46:04.804Z,0.45
2023-04-23T23:51:28.444Z,1.60
2023-04-23T23:56:50.259Z,1.75
